sensor_id;sensor_type;location;lat;lon;timestamp;P1;durP1;ratioP1;P2;durP2;ratioP2
61915;SDS011;47868;51.326;6.550;2022-08-21T00:00:26;15.50;;;6.90;;
61915;SDS011;47868;51.326;6.550;2022-08-21T00:02:55;11.10;;;8.40;;
61915;SDS011;47868;51.326;6.550;2022-08-21T00:05:26;13.25;;;8.95;;
61915;SDS011;47868;51.326;6.550;2022-08-21T00:07:53;11.75;;;9.23;;
61915;SDS011;47868;51.326;6.550;2022-08-21T00:10:19;19.80;;;9.98;;
61915;SDS011;47868;51.326;6.550;2022-08-21T00:12:45;13.43;;;8.35;;
61915;SDS011;47868;51.326;6.550;2022-08-21T00:15:17;12.27;;;8.13;;
61915;SDS011;47868;51.326;6.550;2022-08-21T00:17:47;8.82;;;7.10;;
61915;SDS011;47868;51.326;6.550;2022-08-21T00:20:14;10.43;;;7.65;;
61915;SDS011;47868;51.326;6.550;2022-08-21T00:22:41;9.27;;;7.03;;
61915;SDS011;47868;51.326;6.550;2022-08-21T00:25:07;12.95;;;7.10;;
61915;SDS011;47868;51.326;6.550;2022-08-21T00:27:34;11.48;;;7.28;;
61915;SDS011;47868;51.326;6.550;2022-08-21T00:30:00;9.95;;;7.05;;
61915;SDS011;47868;51.326;6.550;2022-08-21T00:32:27;12.85;;;7.00;;
61915;SDS011;47868;51.326;6.550;2022-08-21T00:34:53;9.75;;;6.95;;
61915;SDS011;47868;51.326;6.550;2022-08-21T00:37:19;10.88;;;6.82;;
61915;SDS011;47868;51.326;6.550;2022-08-21T00:39:45;12.75;;;7.03;;
61915;SDS011;47868;51.326;6.550;2022-08-21T00:42:12;7.85;;;6.55;;
61915;SDS011;47868;51.326;6.550;2022-08-21T00:44:41;11.07;;;6.78;;
61915;SDS011;47868;51.326;6.550;2022-08-21T00:47:08;9.23;;;6.25;;
61915;SDS011;47868;51.326;6.550;2022-08-21T00:49:33;11.50;;;6.25;;
61915;SDS011;47868;51.326;6.550;2022-08-21T00:51:59;12.77;;;6.25;;
61915;SDS011;47868;51.326;6.550;2022-08-21T00:54:26;8.82;;;6.15;;
61915;SDS011;47868;51.326;6.550;2022-08-21T00:56:56;11.32;;;6.65;;
61915;SDS011;47868;51.326;6.550;2022-08-21T00:59:25;11.25;;;6.43;;
61915;SDS011;47868;51.326;6.550;2022-08-21T01:01:52;11.40;;;6.20;;
61915;SDS011;47868;51.326;6.550;2022-08-21T01:04:18;9.55;;;6.32;;
61915;SDS011;47868;51.326;6.550;2022-08-21T01:06:45;7.65;;;5.75;;
61915;SDS011;47868;51.326;6.550;2022-08-21T01:09:11;11.15;;;6.47;;
61915;SDS011;47868;51.326;6.550;2022-08-21T01:11:38;11.27;;;6.25;;
61915;SDS011;47868;51.326;6.550;2022-08-21T01:14:04;9.35;;;5.85;;
61915;SDS011;47868;51.326;6.550;2022-08-21T01:16:30;10.27;;;6.20;;
61915;SDS011;47868;51.326;6.550;2022-08-21T01:18:57;8.95;;;6.43;;
61915;SDS011;47868;51.326;6.550;2022-08-21T01:21:25;12.48;;;6.07;;
61915;SDS011;47868;51.326;6.550;2022-08-21T01:23:52;11.43;;;5.95;;
61915;SDS011;47868;51.326;6.550;2022-08-21T01:26:20;10.27;;;5.85;;
61915;SDS011;47868;51.326;6.550;2022-08-21T01:28:50;10.07;;;5.93;;
61915;SDS011;47868;51.326;6.550;2022-08-21T01:31:22;9.85;;;6.10;;
61915;SDS011;47868;51.326;6.550;2022-08-21T01:33:50;9.77;;;6.20;;
61915;SDS011;47868;51.326;6.550;2022-08-21T01:36:17;13.35;;;6.22;;
61915;SDS011;47868;51.326;6.550;2022-08-21T01:38:43;10.13;;;5.90;;
61915;SDS011;47868;51.326;6.550;2022-08-21T01:41:09;9.57;;;6.03;;
61915;SDS011;47868;51.326;6.550;2022-08-21T01:43:35;9.07;;;5.70;;
61915;SDS011;47868;51.326;6.550;2022-08-21T01:46:01;10.80;;;6.63;;
61915;SDS011;47868;51.326;6.550;2022-08-21T01:48:28;10.50;;;6.15;;
61915;SDS011;47868;51.326;6.550;2022-08-21T01:50:53;13.27;;;6.40;;
61915;SDS011;47868;51.326;6.550;2022-08-21T01:53:19;11.63;;;6.00;;
61915;SDS011;47868;51.326;6.550;2022-08-21T01:55:45;14.57;;;6.50;;
61915;SDS011;47868;51.326;6.550;2022-08-21T01:58:10;7.47;;;6.10;;
61915;SDS011;47868;51.326;6.550;2022-08-21T02:00:36;10.63;;;6.65;;
61915;SDS011;47868;51.326;6.550;2022-08-21T02:03:02;9.90;;;6.68;;
61915;SDS011;47868;51.326;6.550;2022-08-21T02:05:27;12.60;;;6.85;;
61915;SDS011;47868;51.326;6.550;2022-08-21T02:07:53;12.65;;;6.60;;
61915;SDS011;47868;51.326;6.550;2022-08-21T02:10:22;8.70;;;6.90;;
61915;SDS011;47868;51.326;6.550;2022-08-21T02:12:51;10.30;;;7.80;;
61915;SDS011;47868;51.326;6.550;2022-08-21T02:15:17;9.13;;;7.43;;
61915;SDS011;47868;51.326;6.550;2022-08-21T02:17:51;12.73;;;7.40;;
61915;SDS011;47868;51.326;6.550;2022-08-21T02:20:20;9.95;;;7.32;;
61915;SDS011;47868;51.326;6.550;2022-08-21T02:22:55;18.95;;;8.38;;
61915;SDS011;47868;51.326;6.550;2022-08-21T02:25:21;10.65;;;8.27;;
61915;SDS011;47868;51.326;6.550;2022-08-21T02:27:48;12.02;;;7.78;;
61915;SDS011;47868;51.326;6.550;2022-08-21T02:30:16;11.27;;;7.63;;
61915;SDS011;47868;51.326;6.550;2022-08-21T02:32:44;9.63;;;7.68;;
61915;SDS011;47868;51.326;6.550;2022-08-21T02:35:10;12.63;;;8.10;;
61915;SDS011;47868;51.326;6.550;2022-08-21T02:37:43;11.18;;;7.68;;
61915;SDS011;47868;51.326;6.550;2022-08-21T02:40:11;12.02;;;7.75;;
61915;SDS011;47868;51.326;6.550;2022-08-21T02:42:39;13.00;;;7.70;;
61915;SDS011;47868;51.326;6.550;2022-08-21T02:45:05;13.48;;;7.45;;
61915;SDS011;47868;51.326;6.550;2022-08-21T02:47:32;11.13;;;7.40;;
61915;SDS011;47868;51.326;6.550;2022-08-21T02:49:57;14.68;;;7.35;;
61915;SDS011;47868;51.326;6.550;2022-08-21T02:52:23;13.18;;;8.18;;
61915;SDS011;47868;51.326;6.550;2022-08-21T02:54:49;11.45;;;8.15;;
61915;SDS011;47868;51.326;6.550;2022-08-21T02:57:15;10.45;;;7.30;;
61915;SDS011;47868;51.326;6.550;2022-08-21T02:59:40;14.00;;;8.70;;
61915;SDS011;47868;51.326;6.550;2022-08-21T03:02:06;14.73;;;7.97;;
61915;SDS011;47868;51.326;6.550;2022-08-21T03:04:32;10.35;;;8.05;;
61915;SDS011;47868;51.326;6.550;2022-08-21T03:06:58;9.65;;;7.57;;
61915;SDS011;47868;51.326;6.550;2022-08-21T03:09:24;12.32;;;8.23;;
61915;SDS011;47868;51.326;6.550;2022-08-21T03:11:50;12.52;;;7.97;;
61915;SDS011;47868;51.326;6.550;2022-08-21T03:14:16;11.43;;;8.65;;
61915;SDS011;47868;51.326;6.550;2022-08-21T03:16:43;11.88;;;7.43;;
61915;SDS011;47868;51.326;6.550;2022-08-21T03:19:09;13.38;;;7.97;;
61915;SDS011;47868;51.326;6.550;2022-08-21T03:21:35;11.88;;;8.10;;
61915;SDS011;47868;51.326;6.550;2022-08-21T03:24:00;10.68;;;7.95;;
61915;SDS011;47868;51.326;6.550;2022-08-21T03:26:26;12.45;;;8.43;;
61915;SDS011;47868;51.326;6.550;2022-08-21T03:28:52;12.45;;;8.30;;
61915;SDS011;47868;51.326;6.550;2022-08-21T03:31:18;9.95;;;8.32;;
61915;SDS011;47868;51.326;6.550;2022-08-21T03:33:44;18.75;;;9.00;;
61915;SDS011;47868;51.326;6.550;2022-08-21T03:36:09;10.43;;;7.82;;
61915;SDS011;47868;51.326;6.550;2022-08-21T03:38:36;14.88;;;8.45;;
61915;SDS011;47868;51.326;6.550;2022-08-21T03:41:06;9.25;;;8.25;;
61915;SDS011;47868;51.326;6.550;2022-08-21T03:43:32;15.65;;;7.93;;
61915;SDS011;47868;51.326;6.550;2022-08-21T03:46:01;11.88;;;7.80;;
61915;SDS011;47868;51.326;6.550;2022-08-21T03:48:29;10.93;;;7.82;;
61915;SDS011;47868;51.326;6.550;2022-08-21T03:50:55;12.48;;;8.43;;
61915;SDS011;47868;51.326;6.550;2022-08-21T03:53:21;8.18;;;7.35;;
61915;SDS011;47868;51.326;6.550;2022-08-21T03:55:48;10.48;;;7.85;;
61915;SDS011;47868;51.326;6.550;2022-08-21T03:58:18;10.88;;;8.35;;
61915;SDS011;47868;51.326;6.550;2022-08-21T04:00:46;10.85;;;7.68;;
61915;SDS011;47868;51.326;6.550;2022-08-21T04:03:13;10.07;;;7.70;;
61915;SDS011;47868;51.326;6.550;2022-08-21T04:05:40;12.02;;;7.93;;
61915;SDS011;47868;51.326;6.550;2022-08-21T04:08:06;14.32;;;8.45;;
61915;SDS011;47868;51.326;6.550;2022-08-21T04:10:33;12.02;;;7.80;;
61915;SDS011;47868;51.326;6.550;2022-08-21T04:13:00;9.98;;;7.95;;
61915;SDS011;47868;51.326;6.550;2022-08-21T04:15:26;13.15;;;7.80;;
61915;SDS011;47868;51.326;6.550;2022-08-21T04:17:52;13.38;;;8.45;;
61915;SDS011;47868;51.326;6.550;2022-08-21T04:20:20;10.70;;;8.35;;
61915;SDS011;47868;51.326;6.550;2022-08-21T04:22:46;11.18;;;8.27;;
61915;SDS011;47868;51.326;6.550;2022-08-21T04:25:13;9.50;;;7.55;;
61915;SDS011;47868;51.326;6.550;2022-08-21T04:27:40;11.63;;;7.97;;
61915;SDS011;47868;51.326;6.550;2022-08-21T04:30:07;10.70;;;7.95;;
61915;SDS011;47868;51.326;6.550;2022-08-21T04:32:34;9.35;;;7.60;;
61915;SDS011;47868;51.326;6.550;2022-08-21T04:35:01;12.30;;;7.90;;
61915;SDS011;47868;51.326;6.550;2022-08-21T04:37:33;12.05;;;7.88;;
61915;SDS011;47868;51.326;6.550;2022-08-21T04:39:59;11.48;;;7.47;;
61915;SDS011;47868;51.326;6.550;2022-08-21T04:42:25;16.45;;;8.20;;
61915;SDS011;47868;51.326;6.550;2022-08-21T04:44:52;9.20;;;7.82;;
61915;SDS011;47868;51.326;6.550;2022-08-21T04:47:19;9.65;;;7.95;;
61915;SDS011;47868;51.326;6.550;2022-08-21T04:49:44;9.43;;;7.97;;
61915;SDS011;47868;51.326;6.550;2022-08-21T04:52:11;14.30;;;8.05;;
61915;SDS011;47868;51.326;6.550;2022-08-21T04:54:38;8.77;;;7.22;;
61915;SDS011;47868;51.326;6.550;2022-08-21T04:57:06;11.63;;;7.70;;
61915;SDS011;47868;51.326;6.550;2022-08-21T04:59:36;10.50;;;7.88;;
61915;SDS011;47868;51.326;6.550;2022-08-21T05:02:06;8.70;;;6.93;;
61915;SDS011;47868;51.326;6.550;2022-08-21T05:04:34;9.93;;;7.10;;
61915;SDS011;47868;51.326;6.550;2022-08-21T05:07:04;9.45;;;6.78;;
61915;SDS011;47868;51.326;6.550;2022-08-21T05:09:32;14.70;;;7.55;;
61915;SDS011;47868;51.326;6.550;2022-08-21T05:12:00;10.82;;;7.53;;
61915;SDS011;47868;51.326;6.550;2022-08-21T05:14:27;12.73;;;7.47;;
61915;SDS011;47868;51.326;6.550;2022-08-21T05:16:53;11.68;;;6.80;;
61915;SDS011;47868;51.326;6.550;2022-08-21T05:19:18;12.13;;;6.75;;
61915;SDS011;47868;51.326;6.550;2022-08-21T05:21:45;10.43;;;6.50;;
61915;SDS011;47868;51.326;6.550;2022-08-21T05:24:12;9.70;;;6.72;;
61915;SDS011;47868;51.326;6.550;2022-08-21T05:26:38;10.35;;;6.75;;
61915;SDS011;47868;51.326;6.550;2022-08-21T05:29:05;8.70;;;6.70;;
61915;SDS011;47868;51.326;6.550;2022-08-21T05:31:31;10.82;;;5.95;;
61915;SDS011;47868;51.326;6.550;2022-08-21T05:33:57;12.07;;;6.90;;
61915;SDS011;47868;51.326;6.550;2022-08-21T05:36:23;10.55;;;6.57;;
61915;SDS011;47868;51.326;6.550;2022-08-21T05:38:49;6.65;;;5.10;;
61915;SDS011;47868;51.326;6.550;2022-08-21T05:41:14;6.82;;;5.47;;
61915;SDS011;47868;51.326;6.550;2022-08-21T05:43:40;9.55;;;5.93;;
61915;SDS011;47868;51.326;6.550;2022-08-21T05:46:06;7.70;;;5.75;;
61915;SDS011;47868;51.326;6.550;2022-08-21T05:48:32;10.80;;;5.97;;
61915;SDS011;47868;51.326;6.550;2022-08-21T05:51:03;8.57;;;5.28;;
61915;SDS011;47868;51.326;6.550;2022-08-21T05:53:31;7.75;;;5.00;;
61915;SDS011;47868;51.326;6.550;2022-08-21T05:55:57;6.55;;;5.20;;
61915;SDS011;47868;51.326;6.550;2022-08-21T05:58:22;10.38;;;5.20;;
61915;SDS011;47868;51.326;6.550;2022-08-21T06:00:49;8.90;;;5.50;;
61915;SDS011;47868;51.326;6.550;2022-08-21T06:03:18;12.40;;;4.78;;
61915;SDS011;47868;51.326;6.550;2022-08-21T06:05:49;8.70;;;5.30;;
61915;SDS011;47868;51.326;6.550;2022-08-21T06:08:15;11.82;;;5.32;;
61915;SDS011;47868;51.326;6.550;2022-08-21T06:10:42;11.38;;;4.85;;
61915;SDS011;47868;51.326;6.550;2022-08-21T06:13:09;13.00;;;4.78;;
61915;SDS011;47868;51.326;6.550;2022-08-21T06:15:35;6.18;;;4.20;;
61915;SDS011;47868;51.326;6.550;2022-08-21T06:18:00;8.68;;;4.85;;
61915;SDS011;47868;51.326;6.550;2022-08-21T06:20:26;9.13;;;4.65;;
61915;SDS011;47868;51.326;6.550;2022-08-21T06:22:53;9.45;;;4.68;;
61915;SDS011;47868;51.326;6.550;2022-08-21T06:25:18;13.95;;;5.30;;
61915;SDS011;47868;51.326;6.550;2022-08-21T06:27:44;8.90;;;4.85;;
61915;SDS011;47868;51.326;6.550;2022-08-21T06:30:11;9.82;;;4.47;;
61915;SDS011;47868;51.326;6.550;2022-08-21T06:32:37;5.40;;;3.95;;
61915;SDS011;47868;51.326;6.550;2022-08-21T06:35:04;8.75;;;4.38;;
61915;SDS011;47868;51.326;6.550;2022-08-21T06:37:31;6.90;;;3.88;;
61915;SDS011;47868;51.326;6.550;2022-08-21T06:39:56;12.90;;;4.90;;
61915;SDS011;47868;51.326;6.550;2022-08-21T06:42:22;8.18;;;4.03;;
61915;SDS011;47868;51.326;6.550;2022-08-21T06:44:48;11.30;;;4.18;;
61915;SDS011;47868;51.326;6.550;2022-08-21T06:47:13;10.55;;;4.30;;
61915;SDS011;47868;51.326;6.550;2022-08-21T06:49:40;7.63;;;3.85;;
61915;SDS011;47868;51.326;6.550;2022-08-21T06:52:09;8.88;;;4.60;;
61915;SDS011;47868;51.326;6.550;2022-08-21T06:54:36;7.35;;;3.80;;
61915;SDS011;47868;51.326;6.550;2022-08-21T06:57:03;11.20;;;4.00;;
61915;SDS011;47868;51.326;6.550;2022-08-21T06:59:28;7.18;;;3.78;;
61915;SDS011;47868;51.326;6.550;2022-08-21T07:01:54;11.10;;;4.45;;
61915;SDS011;47868;51.326;6.550;2022-08-21T07:04:20;8.85;;;3.63;;
61915;SDS011;47868;51.326;6.550;2022-08-21T07:06:46;8.48;;;3.63;;
61915;SDS011;47868;51.326;6.550;2022-08-21T07:09:11;6.40;;;3.47;;
61915;SDS011;47868;51.326;6.550;2022-08-21T07:11:37;8.07;;;3.83;;
61915;SDS011;47868;51.326;6.550;2022-08-21T07:14:03;6.88;;;3.60;;
61915;SDS011;47868;51.326;6.550;2022-08-21T07:16:29;6.65;;;3.45;;
61915;SDS011;47868;51.326;6.550;2022-08-21T07:18:55;8.95;;;3.60;;
61915;SDS011;47868;51.326;6.550;2022-08-21T07:21:20;8.52;;;3.10;;
61915;SDS011;47868;51.326;6.550;2022-08-21T07:23:47;6.93;;;3.13;;
61915;SDS011;47868;51.326;6.550;2022-08-21T07:26:15;6.10;;;3.08;;
61915;SDS011;47868;51.326;6.550;2022-08-21T07:28:42;7.03;;;3.00;;
61915;SDS011;47868;51.326;6.550;2022-08-21T07:31:09;11.20;;;3.70;;
61915;SDS011;47868;51.326;6.550;2022-08-21T07:33:38;6.65;;;2.95;;
61915;SDS011;47868;51.326;6.550;2022-08-21T07:36:05;12.70;;;3.28;;
61915;SDS011;47868;51.326;6.550;2022-08-21T07:38:31;4.25;;;2.67;;
61915;SDS011;47868;51.326;6.550;2022-08-21T07:40:57;4.68;;;2.03;;
61915;SDS011;47868;51.326;6.550;2022-08-21T07:43:25;5.63;;;2.25;;
61915;SDS011;47868;51.326;6.550;2022-08-21T07:45:52;7.53;;;2.53;;
61915;SDS011;47868;51.326;6.550;2022-08-21T07:48:19;9.45;;;3.28;;
61915;SDS011;47868;51.326;6.550;2022-08-21T07:50:45;6.50;;;2.28;;
61915;SDS011;47868;51.326;6.550;2022-08-21T07:53:10;5.80;;;2.33;;
61915;SDS011;47868;51.326;6.550;2022-08-21T07:55:36;8.45;;;2.38;;
61915;SDS011;47868;51.326;6.550;2022-08-21T07:58:02;8.10;;;2.60;;
61915;SDS011;47868;51.326;6.550;2022-08-21T08:00:29;7.05;;;2.38;;
61915;SDS011;47868;51.326;6.550;2022-08-21T08:02:56;7.15;;;2.45;;
61915;SDS011;47868;51.326;6.550;2022-08-21T08:05:23;4.95;;;2.30;;
61915;SDS011;47868;51.326;6.550;2022-08-21T08:07:51;6.60;;;2.50;;
61915;SDS011;47868;51.326;6.550;2022-08-21T08:10:17;7.63;;;2.22;;
61915;SDS011;47868;51.326;6.550;2022-08-21T08:12:44;4.70;;;2.17;;
61915;SDS011;47868;51.326;6.550;2022-08-21T08:15:20;11.23;;;2.75;;
61915;SDS011;47868;51.326;6.550;2022-08-21T08:17:48;4.80;;;2.30;;
61915;SDS011;47868;51.326;6.550;2022-08-21T08:20:14;5.25;;;2.05;;
61915;SDS011;47868;51.326;6.550;2022-08-21T08:22:42;6.07;;;2.35;;
61915;SDS011;47868;51.326;6.550;2022-08-21T08:25:08;10.18;;;2.15;;
61915;SDS011;47868;51.326;6.550;2022-08-21T08:27:36;7.72;;;1.95;;
61915;SDS011;47868;51.326;6.550;2022-08-21T08:30:03;7.85;;;2.33;;
61915;SDS011;47868;51.326;6.550;2022-08-21T08:32:30;6.75;;;1.95;;
61915;SDS011;47868;51.326;6.550;2022-08-21T08:34:55;3.83;;;1.80;;
61915;SDS011;47868;51.326;6.550;2022-08-21T08:37:21;5.15;;;2.13;;
61915;SDS011;47868;51.326;6.550;2022-08-21T08:39:47;7.13;;;2.20;;
61915;SDS011;47868;51.326;6.550;2022-08-21T08:42:27;5.88;;;1.88;;
61915;SDS011;47868;51.326;6.550;2022-08-21T08:45:03;6.28;;;2.17;;
61915;SDS011;47868;51.326;6.550;2022-08-21T08:47:36;4.93;;;2.00;;
61915;SDS011;47868;51.326;6.550;2022-08-21T08:50:25;3.70;;;2.03;;
61915;SDS011;47868;51.326;6.550;2022-08-21T08:53:23;6.82;;;2.22;;
61915;SDS011;47868;51.326;6.550;2022-08-21T08:55:58;3.53;;;1.55;;
61915;SDS011;47868;51.326;6.550;2022-08-21T09:00:58;7.15;;;2.25;;
61915;SDS011;47868;51.326;6.550;2022-08-21T09:03:24;3.40;;;2.17;;
61915;SDS011;47868;51.326;6.550;2022-08-21T09:11:45;6.45;;;1.88;;
61915;SDS011;47868;51.326;6.550;2022-08-21T09:27:37;6.03;;;2.25;;
61915;SDS011;47868;51.326;6.550;2022-08-21T09:30:04;5.90;;;2.30;;
61915;SDS011;47868;51.326;6.550;2022-08-21T09:32:31;4.78;;;1.98;;
61915;SDS011;47868;51.326;6.550;2022-08-21T09:37:24;4.57;;;2.20;;
61915;SDS011;47868;51.326;6.550;2022-08-21T09:39:54;6.00;;;1.92;;
61915;SDS011;47868;51.326;6.550;2022-08-21T09:42:27;5.15;;;2.00;;
61915;SDS011;47868;51.326;6.550;2022-08-21T09:47:37;4.20;;;2.20;;
61915;SDS011;47868;51.326;6.550;2022-08-21T09:50:07;4.90;;;1.90;;
61915;SDS011;47868;51.326;6.550;2022-08-21T09:52:41;6.78;;;1.80;;
61915;SDS011;47868;51.326;6.550;2022-08-21T09:58:18;3.42;;;1.90;;
61915;SDS011;47868;51.326;6.550;2022-08-21T10:00:45;3.17;;;1.70;;
61915;SDS011;47868;51.326;6.550;2022-08-21T10:03:21;2.70;;;1.50;;
61915;SDS011;47868;51.326;6.550;2022-08-21T10:06:03;3.38;;;1.58;;
61915;SDS011;47868;51.326;6.550;2022-08-21T10:08:33;3.55;;;2.10;;
61915;SDS011;47868;51.326;6.550;2022-08-21T10:11:08;3.22;;;1.67;;
61915;SDS011;47868;51.326;6.550;2022-08-21T10:16:30;3.65;;;1.20;;
61915;SDS011;47868;51.326;6.550;2022-08-21T10:19:18;3.08;;;1.38;;
61915;SDS011;47868;51.326;6.550;2022-08-21T10:33:42;3.10;;;1.50;;
61915;SDS011;47868;51.326;6.550;2022-08-21T10:39:07;4.10;;;1.80;;
61915;SDS011;47868;51.326;6.550;2022-08-21T10:47:02;3.58;;;1.65;;
61915;SDS011;47868;51.326;6.550;2022-08-21T10:52:36;6.15;;;1.77;;
61915;SDS011;47868;51.326;6.550;2022-08-21T10:55:16;5.15;;;1.80;;
61915;SDS011;47868;51.326;6.550;2022-08-21T10:57:54;5.47;;;1.58;;
61915;SDS011;47868;51.326;6.550;2022-08-21T11:00:29;4.25;;;1.77;;
61915;SDS011;47868;51.326;6.550;2022-08-21T11:06:00;3.83;;;1.73;;
61915;SDS011;47868;51.326;6.550;2022-08-21T11:08:40;3.70;;;1.65;;
61915;SDS011;47868;51.326;6.550;2022-08-21T11:13:59;4.07;;;1.58;;
61915;SDS011;47868;51.326;6.550;2022-08-21T11:22:13;2.88;;;1.52;;
61915;SDS011;47868;51.326;6.550;2022-08-21T11:25:03;2.17;;;1.20;;
61915;SDS011;47868;51.326;6.550;2022-08-21T11:27:45;4.43;;;1.63;;
61915;SDS011;47868;51.326;6.550;2022-08-21T11:30:17;4.45;;;2.70;;
61915;SDS011;47868;51.326;6.550;2022-08-21T11:43:39;4.75;;;1.77;;
61915;SDS011;47868;51.326;6.550;2022-08-21T11:46:14;3.42;;;1.35;;
61915;SDS011;47868;51.326;6.550;2022-08-21T11:51:38;3.65;;;1.27;;
61915;SDS011;47868;51.326;6.550;2022-08-21T11:54:23;4.85;;;1.83;;
61915;SDS011;47868;51.326;6.550;2022-08-21T11:57:11;3.28;;;1.90;;
61915;SDS011;47868;51.326;6.550;2022-08-21T12:02:24;5.43;;;1.80;;
61915;SDS011;47868;51.326;6.550;2022-08-21T12:04:58;5.05;;;1.42;;
61915;SDS011;47868;51.326;6.550;2022-08-21T12:09:58;2.70;;;1.30;;
61915;SDS011;47868;51.326;6.550;2022-08-21T12:12:26;2.55;;;1.50;;
61915;SDS011;47868;51.326;6.550;2022-08-21T12:17:40;5.50;;;1.40;;
61915;SDS011;47868;51.326;6.550;2022-08-21T12:22:49;3.33;;;1.50;;
61915;SDS011;47868;51.326;6.550;2022-08-21T12:25:38;2.92;;;1.45;;
61915;SDS011;47868;51.326;6.550;2022-08-21T12:28:33;3.38;;;1.20;;
61915;SDS011;47868;51.326;6.550;2022-08-21T12:30:59;4.10;;;1.13;;
61915;SDS011;47868;51.326;6.550;2022-08-21T12:33:30;3.85;;;1.20;;
61915;SDS011;47868;51.326;6.550;2022-08-21T12:36:09;1.52;;;1.00;;
61915;SDS011;47868;51.326;6.550;2022-08-21T12:38:46;2.05;;;1.40;;
61915;SDS011;47868;51.326;6.550;2022-08-21T12:41:20;4.03;;;1.33;;
61915;SDS011;47868;51.326;6.550;2022-08-21T12:43:54;3.08;;;1.48;;
61915;SDS011;47868;51.326;6.550;2022-08-21T12:46:37;2.97;;;1.33;;
61915;SDS011;47868;51.326;6.550;2022-08-21T12:49:19;4.95;;;1.27;;
61915;SDS011;47868;51.326;6.550;2022-08-21T12:52:09;3.13;;;1.45;;
61915;SDS011;47868;51.326;6.550;2022-08-21T12:54:47;4.13;;;1.52;;
61915;SDS011;47868;51.326;6.550;2022-08-21T12:57:20;2.97;;;1.35;;
61915;SDS011;47868;51.326;6.550;2022-08-21T12:59:52;5.82;;;1.40;;
61915;SDS011;47868;51.326;6.550;2022-08-21T13:02:25;1.70;;;1.00;;
61915;SDS011;47868;51.326;6.550;2022-08-21T13:04:56;3.95;;;1.40;;
61915;SDS011;47868;51.326;6.550;2022-08-21T13:07:29;3.40;;;1.67;;
61915;SDS011;47868;51.326;6.550;2022-08-21T13:10:00;2.33;;;1.45;;
61915;SDS011;47868;51.326;6.550;2022-08-21T13:12:30;4.45;;;1.50;;
61915;SDS011;47868;51.326;6.550;2022-08-21T13:14:58;4.53;;;1.52;;
61915;SDS011;47868;51.326;6.550;2022-08-21T13:17:30;3.17;;;1.48;;
61915;SDS011;47868;51.326;6.550;2022-08-21T13:20:00;4.18;;;1.58;;
61915;SDS011;47868;51.326;6.550;2022-08-21T13:22:46;4.40;;;1.65;;
61915;SDS011;47868;51.326;6.550;2022-08-21T13:25:13;2.22;;;1.33;;
61915;SDS011;47868;51.326;6.550;2022-08-21T13:27:41;4.85;;;1.40;;
61915;SDS011;47868;51.326;6.550;2022-08-21T13:32:44;5.03;;;1.98;;
61915;SDS011;47868;51.326;6.550;2022-08-21T13:35:24;4.07;;;1.73;;
61915;SDS011;47868;51.326;6.550;2022-08-21T13:37:55;2.80;;;1.50;;
61915;SDS011;47868;51.326;6.550;2022-08-21T13:40:26;3.17;;;1.50;;
61915;SDS011;47868;51.326;6.550;2022-08-21T13:42:55;4.35;;;1.55;;
61915;SDS011;47868;51.326;6.550;2022-08-21T13:45:25;3.63;;;1.52;;
61915;SDS011;47868;51.326;6.550;2022-08-21T13:47:56;5.18;;;1.48;;
61915;SDS011;47868;51.326;6.550;2022-08-21T13:50:24;3.38;;;1.50;;
61915;SDS011;47868;51.326;6.550;2022-08-21T13:52:56;4.82;;;1.40;;
61915;SDS011;47868;51.326;6.550;2022-08-21T13:55:33;3.08;;;1.50;;
61915;SDS011;47868;51.326;6.550;2022-08-21T13:58:06;3.33;;;1.42;;
61915;SDS011;47868;51.326;6.550;2022-08-21T14:00:34;6.50;;;1.40;;
61915;SDS011;47868;51.326;6.550;2022-08-21T14:03:10;3.28;;;1.60;;
61915;SDS011;47868;51.326;6.550;2022-08-21T14:05:43;3.30;;;1.70;;
61915;SDS011;47868;51.326;6.550;2022-08-21T14:08:12;4.22;;;1.40;;
61915;SDS011;47868;51.326;6.550;2022-08-21T14:10:49;4.07;;;1.73;;
61915;SDS011;47868;51.326;6.550;2022-08-21T14:16:25;6.22;;;1.65;;
61915;SDS011;47868;51.326;6.550;2022-08-21T14:21:27;2.40;;;1.40;;
61915;SDS011;47868;51.326;6.550;2022-08-21T14:26:44;2.67;;;1.42;;
61915;SDS011;47868;51.326;6.550;2022-08-21T14:29:15;2.15;;;1.38;;
61915;SDS011;47868;51.326;6.550;2022-08-21T14:31:42;4.07;;;1.25;;
61915;SDS011;47868;51.326;6.550;2022-08-21T14:34:14;3.67;;;1.35;;
61915;SDS011;47868;51.326;6.550;2022-08-21T14:36:42;2.55;;;1.27;;
61915;SDS011;47868;51.326;6.550;2022-08-21T14:39:08;3.17;;;1.65;;
61915;SDS011;47868;51.326;6.550;2022-08-21T14:41:34;2.97;;;1.30;;
61915;SDS011;47868;51.326;6.550;2022-08-21T14:44:02;6.30;;;1.50;;
61915;SDS011;47868;51.326;6.550;2022-08-21T14:46:29;2.33;;;1.45;;
61915;SDS011;47868;51.326;6.550;2022-08-21T14:48:57;2.92;;;1.50;;
61915;SDS011;47868;51.326;6.550;2022-08-21T14:51:23;2.42;;;1.48;;
61915;SDS011;47868;51.326;6.550;2022-08-21T14:53:49;5.13;;;1.40;;
61915;SDS011;47868;51.326;6.550;2022-08-21T14:56:14;3.05;;;1.52;;
61915;SDS011;47868;51.326;6.550;2022-08-21T14:58:42;2.72;;;1.38;;
61915;SDS011;47868;51.326;6.550;2022-08-21T15:01:10;4.95;;;2.10;;
61915;SDS011;47868;51.326;6.550;2022-08-21T15:03:38;5.35;;;2.40;;
61915;SDS011;47868;51.326;6.550;2022-08-21T15:06:04;5.72;;;2.05;;
61915;SDS011;47868;51.326;6.550;2022-08-21T15:08:30;4.35;;;1.48;;
61915;SDS011;47868;51.326;6.550;2022-08-21T15:10:57;3.53;;;1.67;;
61915;SDS011;47868;51.326;6.550;2022-08-21T15:13:24;7.00;;;1.75;;
61915;SDS011;47868;51.326;6.550;2022-08-21T15:15:50;4.25;;;1.50;;
61915;SDS011;47868;51.326;6.550;2022-08-21T15:18:18;3.08;;;1.48;;
61915;SDS011;47868;51.326;6.550;2022-08-21T15:20:47;2.22;;;1.38;;
61915;SDS011;47868;51.326;6.550;2022-08-21T15:23:13;4.03;;;1.65;;
61915;SDS011;47868;51.326;6.550;2022-08-21T15:25:43;5.93;;;1.40;;
61915;SDS011;47868;51.326;6.550;2022-08-21T15:28:10;2.33;;;1.52;;
61915;SDS011;47868;51.326;6.550;2022-08-21T15:30:40;5.40;;;1.52;;
61915;SDS011;47868;51.326;6.550;2022-08-21T15:33:06;2.20;;;1.50;;
61915;SDS011;47868;51.326;6.550;2022-08-21T15:35:33;5.15;;;1.80;;
61915;SDS011;47868;51.326;6.550;2022-08-21T15:37:59;3.58;;;1.65;;
61915;SDS011;47868;51.326;6.550;2022-08-21T15:40:25;3.03;;;1.60;;
61915;SDS011;47868;51.326;6.550;2022-08-21T15:42:52;3.65;;;1.55;;
61915;SDS011;47868;51.326;6.550;2022-08-21T15:45:23;4.60;;;1.73;;
61915;SDS011;47868;51.326;6.550;2022-08-21T15:47:49;3.55;;;1.65;;
61915;SDS011;47868;51.326;6.550;2022-08-21T15:50:15;4.53;;;1.63;;
61915;SDS011;47868;51.326;6.550;2022-08-21T15:52:42;4.38;;;2.00;;
61915;SDS011;47868;51.326;6.550;2022-08-21T15:55:11;2.35;;;1.70;;
61915;SDS011;47868;51.326;6.550;2022-08-21T15:57:37;4.10;;;1.48;;
61915;SDS011;47868;51.326;6.550;2022-08-21T16:00:14;6.82;;;2.00;;
61915;SDS011;47868;51.326;6.550;2022-08-21T16:02:45;5.63;;;1.92;;
61915;SDS011;47868;51.326;6.550;2022-08-21T16:05:12;6.13;;;1.90;;
61915;SDS011;47868;51.326;6.550;2022-08-21T16:07:42;3.75;;;2.15;;
61915;SDS011;47868;51.326;6.550;2022-08-21T16:10:09;4.30;;;1.80;;
61915;SDS011;47868;51.326;6.550;2022-08-21T16:12:40;3.15;;;1.63;;
61915;SDS011;47868;51.326;6.550;2022-08-21T16:15:10;3.78;;;1.48;;
61915;SDS011;47868;51.326;6.550;2022-08-21T16:17:38;2.55;;;1.40;;
61915;SDS011;47868;51.326;6.550;2022-08-21T16:20:06;3.22;;;1.85;;
61915;SDS011;47868;51.326;6.550;2022-08-21T16:22:35;4.60;;;1.90;;
61915;SDS011;47868;51.326;6.550;2022-08-21T16:25:01;7.75;;;1.70;;
61915;SDS011;47868;51.326;6.550;2022-08-21T16:27:28;1.95;;;1.25;;
61915;SDS011;47868;51.326;6.550;2022-08-21T16:29:53;3.90;;;2.03;;
61915;SDS011;47868;51.326;6.550;2022-08-21T16:32:19;4.10;;;1.90;;
61915;SDS011;47868;51.326;6.550;2022-08-21T16:34:46;3.33;;;1.60;;